Time;durP1;ratioP1;P1;durP2;ratioP2;P2;SDS_P1;SDS_P2;PMS_P1;PMS_P2;Temp;Humidity;BMP_temperature;BMP_pressure;BME280_temperature;BME280_humidity;BME280_pressure;Samples;Min_cycle;Max_cycle;Signal;HPM_P1;HPM_P2
2023/09/07 00:00:10;;;;;;;0.00;0.00;;;19.10;52.70;;;;;;5072217;28;20199;-59
2023/09/07 00:02:41;;;;;;;0.00;0.00;;;19.10;52.60;;;;;;5071273;28;20241;-59
2023/09/07 00:05:13;;;;;;;0.00;0.00;;;19.10;52.60;;;;;;5071655;28;20206;-59
2023/09/07 00:07:43;;;;;;;0.00;0.00;;;19.20;52.60;;;;;;5070801;28;20215;-58
2023/09/07 00:10:14;;;;;;;0.00;0.00;;;19.20;52.50;;;;;;5072059;28;20197;-59
2023/09/07 00:12:47;;;;;;;0.00;0.00;;;19.20;52.50;;;;;;5071659;28;20203;-59
2023/09/07 00:15:19;;;;;;;0.00;0.00;;;19.20;52.40;;;;;;5070827;28;20199;-59
2023/09/07 00:17:51;;;;;;;0.03;0.03;;;19.20;52.30;;;;;;5070199;28;20215;-59
2023/09/07 00:20:21;;;;;;;0.10;0.10;;;19.30;52.40;;;;;;5066922;28;20195;-59
2023/09/07 00:22:52;;;;;;;0.00;0.00;;;19.30;52.40;;;;;;5071028;28;20206;-58
2023/09/07 00:25:23;;;;;;;0.10;0.10;;;19.30;52.30;;;;;;5070381;28;20218;-59
2023/09/07 00:27:55;;;;;;;0.10;0.10;;;19.40;52.30;;;;;;5066840;28;20211;-58
2023/09/07 00:30:27;;;;;;;0.10;0.10;;;19.40;52.30;;;;;;5071453;28;20210;-58
2023/09/07 00:32:57;;;;;;;0.10;0.10;;;19.40;52.20;;;;;;5070940;28;20666;-59
2023/09/07 00:35:28;;;;;;;0.20;0.20;;;19.40;52.30;;;;;;5071207;28;20199;-59
2023/09/07 00:37:59;;;;;;;0.08;0.08;;;19.40;52.20;;;;;;5069889;28;20466;-59
2023/09/07 00:40:29;;;;;;;0.10;0.10;;;19.50;52.20;;;;;;5071617;28;20191;-59
2023/09/07 00:43:04;;;;;;;0.10;0.10;;;19.50;52.10;;;;;;5070842;28;20600;-59
2023/09/07 00:45:35;;;;;;;0.00;0.00;;;19.50;52.10;;;;;;5071094;28;20194;-59
2023/09/07 00:48:06;;;;;;;0.10;0.10;;;19.60;52.10;;;;;;5070714;28;20215;-58
2023/09/07 00:50:37;;;;;;;0.10;0.10;;;19.60;52.10;;;;;;5070677;28;20202;-59
2023/09/07 00:53:08;;;;;;;0.00;0.00;;;19.60;52.00;;;;;;5070096;28;20619;-59
2023/09/07 00:55:39;;;;;;;0.00;0.00;;;19.60;52.00;;;;;;5071121;28;20680;-58
2023/09/07 00:58:13;;;;;;;0.00;0.00;;;19.70;52.10;;;;;;5070374;28;20280;-57
2023/09/07 01:00:44;;;;;;;0.00;0.00;;;19.70;52.10;;;;;;5070530;28;20226;-58
2023/09/07 01:03:14;;;;;;;0.00;0.00;;;19.80;52.10;;;;;;5070639;28;20229;-58
2023/09/07 01:05:53;;;;;;;0.00;0.00;;;19.80;52.10;;;;;;5070955;28;20672;-58
2023/09/07 01:08:29;;;;;;;0.05;0.05;;;19.80;52.00;;;;;;5071190;28;20689;-58
2023/09/07 01:10:59;;;;;;;0.00;0.00;;;19.80;52.00;;;;;;5070605;28;20202;-58
2023/09/07 01:13:32;;;;;;;0.00;0.00;;;19.90;51.90;;;;;;5070247;28;20650;-59
2023/09/07 01:16:02;;;;;;;0.00;0.00;;;19.90;51.90;;;;;;5069705;28;20584;-58
2023/09/07 01:18:33;;;;;;;0.00;0.00;;;19.90;51.90;;;;;;5070926;28;20242;-58
2023/09/07 01:21:06;;;;;;;0.00;0.00;;;19.90;51.90;;;;;;5069862;28;20183;-58
2023/09/07 01:23:39;;;;;;;0.00;0.00;;;20.00;51.90;;;;;;5069810;28;20226;-58
2023/09/07 01:26:11;;;;;;;0.10;0.10;;;20.00;51.80;;;;;;5070886;28;20209;-58
2023/09/07 01:28:41;;;;;;;0.00;0.00;;;20.10;51.90;;;;;;5070613;28;20246;-58
2023/09/07 01:31:12;;;;;;;0.10;0.10;;;20.10;51.90;;;;;;5070551;28;20203;-59
2023/09/07 01:33:43;;;;;;;0.00;0.00;;;20.10;51.80;;;;;;5088491;22;20645;-45
2023/09/07 01:36:13;;;;;;;0.10;0.10;;;20.20;51.90;;;;;;5090353;28;20673;-46
2023/09/07 01:38:46;;;;;;;0.00;0.00;;;20.20;51.90;;;;;;5090529;28;20213;-48
2023/09/07 01:41:16;;;;;;;0.00;0.00;;;20.20;52.00;;;;;;5090139;28;20214;-47
2023/09/07 01:43:47;;;;;;;0.00;0.00;;;20.20;52.00;;;;;;5090568;28;20199;-49
2023/09/07 01:46:18;;;;;;;0.10;0.10;;;20.30;52.00;;;;;;5090540;28;20822;-45
2023/09/07 01:48:48;;;;;;;0.05;0.05;;;20.30;52.00;;;;;;5089641;28;20218;-46
2023/09/07 01:51:19;;;;;;;0.00;0.00;;;20.40;52.00;;;;;;5090978;28;20202;-47
2023/09/07 01:53:53;;;;;;;0.10;0.10;;;20.40;51.90;;;;;;5090504;28;20201;-46
2023/09/07 01:56:24;;;;;;;0.05;0.05;;;20.40;51.90;;;;;;5089829;28;20193;-45
2023/09/07 01:58:54;;;;;;;0.10;0.10;;;20.50;51.90;;;;;;5091025;28;20218;-45
2023/09/07 02:01:26;;;;;;;0.10;0.10;;;20.50;51.90;;;;;;5089403;28;20222;-48
2023/09/07 02:03:57;;;;;;;0.00;0.00;;;20.50;51.90;;;;;;5093010;28;20660;-46
2023/09/07 02:06:27;;;;;;;0.10;0.10;;;20.60;52.00;;;;;;5094077;28;20210;-45
2023/09/07 02:09:00;;;;;;;0.00;0.00;;;20.60;51.90;;;;;;5093268;28;20206;-48
2023/09/07 02:11:30;;;;;;;0.00;0.00;;;20.60;51.90;;;;;;5092281;28;20193;-47
2023/09/07 02:14:02;;;;;;;0.00;0.00;;;20.70;51.90;;;;;;5074332;28;20677;-48
2023/09/07 02:16:33;;;;;;;0.10;0.10;;;20.70;52.00;;;;;;5074088;28;20245;-46
2023/09/07 02:19:07;;;;;;;0.00;0.00;;;20.70;52.00;;;;;;5092708;28;20204;-45
2023/09/07 02:21:37;;;;;;;0.00;0.00;;;20.80;52.00;;;;;;5080186;28;20222;-45
2023/09/07 02:24:10;;;;;;;0.05;0.05;;;20.80;52.00;;;;;;5093443;28;20202;-47
2023/09/07 02:26:45;;;;;;;0.00;0.00;;;20.90;52.10;;;;;;5094250;28;20213;-48
2023/09/07 02:29:15;;;;;;;0.05;0.05;;;20.90;52.10;;;;;;5073503;28;20267;-46
2023/09/07 02:31:46;;;;;;;0.00;0.00;;;20.90;52.10;;;;;;5092536;28;20680;-47
2023/09/07 02:34:17;;;;;;;0.00;0.00;;;21.00;52.10;;;;;;5075364;28;20195;-46
2023/09/07 02:36:47;;;;;;;0.00;0.00;;;21.00;52.10;;;;;;5093767;28;20402;-48
2023/09/07 02:39:20;;;;;;;0.10;0.10;;;21.10;52.20;;;;;;5073542;28;20619;-48
2023/09/07 02:41:50;;;;;;;0.00;0.00;;;21.10;52.20;;;;;;5073257;28;20712;-49
2023/09/07 02:44:21;;;;;;;0.10;0.10;;;21.10;52.20;;;;;;5073047;28;20252;-49
2023/09/07 02:46:52;;;;;;;0.10;0.10;;;21.20;52.20;;;;;;5072703;28;20195;-47
2023/09/07 02:49:22;;;;;;;0.10;0.10;;;21.20;52.30;;;;;;5073862;28;20638;-47
2023/09/07 02:51:53;;;;;;;0.00;0.00;;;21.30;52.40;;;;;;5073135;28;20202;-47
2023/09/07 02:54:25;;;;;;;0.00;0.00;;;21.30;52.40;;;;;;5079863;28;20209;-49
2023/09/07 02:56:56;;;;;;;0.10;0.10;;;21.40;52.50;;;;;;5092628;28;20217;-47
2023/09/07 02:59:27;;;;;;;0.10;0.10;;;21.40;52.40;;;;;;5072859;28;20202;-45
2023/09/07 03:01:57;;;;;;;0.00;0.00;;;21.40;52.50;;;;;;5073006;28;20227;-46
2023/09/07 03:04:28;;;;;;;0.00;0.00;;;21.50;52.50;;;;;;5076380;28;20205;-49
2023/09/07 03:06:58;;;;;;;0.00;0.00;;;21.50;52.50;;;;;;5093787;28;20214;-48
2023/09/07 03:09:31;;;;;;;0.00;0.00;;;21.60;52.60;;;;;;5092911;28;20194;-47
2023/09/07 03:12:01;;;;;;;0.00;0.00;;;21.60;52.50;;;;;;5093683;28;20198;-48
2023/09/07 03:14:34;;;;;;;0.00;0.00;;;21.70;52.50;;;;;;5091374;28;20198;-47
2023/09/07 03:17:05;;;;;;;0.00;0.00;;;21.70;52.40;;;;;;5093344;28;20224;-48
2023/09/07 03:19:35;;;;;;;0.10;0.10;;;21.70;52.40;;;;;;5072729;28;20197;-46
2023/09/07 03:22:09;;;;;;;0.10;0.10;;;21.80;52.30;;;;;;5086393;28;20225;-46
2023/09/07 03:24:41;;;;;;;0.10;0.10;;;21.80;52.30;;;;;;5092550;28;20201;-47
2023/09/07 03:27:13;;;;;;;0.00;0.00;;;21.80;52.20;;;;;;5091695;28;20225;-46
2023/09/07 03:29:43;;;;;;;0.10;0.10;;;21.90;52.20;;;;;;5092632;28;20285;-46
2023/09/07 03:32:14;;;;;;;0.10;0.10;;;22.00;52.10;;;;;;5092346;28;20583;-46
2023/09/07 03:34:44;;;;;;;0.00;0.00;;;22.00;52.00;;;;;;5090812;22;20222;-58
2023/09/07 03:37:18;;;;;;;0.00;0.00;;;22.00;51.90;;;;;;5072026;28;20215;-58
2023/09/07 03:39:51;;;;;;;0.00;0.00;;;22.10;51.90;;;;;;5072855;28;20553;-58
2023/09/07 03:42:21;;;;;;;0.00;0.00;;;22.10;51.80;;;;;;5071383;28;20725;-58
2023/09/07 03:44:52;;;;;;;0.10;0.10;;;22.10;51.70;;;;;;5072079;28;20203;-58
2023/09/07 03:47:22;;;;;;;0.10;0.10;;;22.20;51.60;;;;;;5071456;28;20624;-59
2023/09/07 03:49:54;;;;;;;0.10;0.10;;;22.20;51.50;;;;;;5071612;28;20202;-58
2023/09/07 03:52:26;;;;;;;0.00;0.00;;;22.20;51.50;;;;;;5071840;28;20201;-58
2023/09/07 03:55:00;;;;;;;0.00;0.00;;;22.20;51.40;;;;;;5071840;28;20329;-58
2023/09/07 03:57:31;;;;;;;0.08;0.08;;;22.30;51.30;;;;;;5072023;28;20222;-58
2023/09/07 04:00:03;;;;;;;0.10;0.10;;;22.30;51.30;;;;;;5071109;28;20195;-59
2023/09/07 04:02:35;;;;;;;0.10;0.10;;;22.40;51.20;;;;;;5071647;28;20219;-58
2023/09/07 04:05:06;;;;;;;0.10;0.10;;;22.40;51.20;;;;;;5071586;28;20205;-58
2023/09/07 04:07:37;;;;;;;0.10;0.10;;;22.40;51.00;;;;;;5070774;28;20644;-58
2023/09/07 04:10:10;;;;;;;0.10;0.10;;;22.40;51.00;;;;;;5052356;28;20578;-58
2023/09/07 04:12:41;;;;;;;0.00;0.00;;;22.50;51.00;;;;;;5053240;28;20192;-58
2023/09/07 04:15:12;;;;;;;0.00;0.00;;;22.50;51.00;;;;;;5072474;28;20191;-58
2023/09/07 04:17:43;;;;;;;0.00;0.00;;;22.60;51.00;;;;;;5070531;28;20629;-58
2023/09/07 04:20:14;;;;;;;0.10;0.10;;;22.60;51.00;;;;;;5071836;28;20662;-59
2023/09/07 04:22:45;;;;;;;0.00;0.00;;;22.60;51.00;;;;;;5070970;28;20219;-58
2023/09/07 04:25:17;;;;;;;0.10;0.10;;;22.60;51.00;;;;;;5071742;28;20232;-58
2023/09/07 04:27:48;;;;;;;0.00;0.00;;;22.70;51.00;;;;;;5070887;28;20690;-58
2023/09/07 04:30:18;;;;;;;0.03;0.03;;;22.70;50.90;;;;;;5070904;28;20198;-58
2023/09/07 04:32:55;;;;;;;0.00;0.00;;;22.70;50.80;;;;;;5071370;28;20195;-58
2023/09/07 04:35:32;;;;;;;0.00;0.00;;;22.70;50.70;;;;;;5070740;28;20579;-58
2023/09/07 04:38:02;;;;;;;0.00;0.00;;;22.80;50.60;;;;;;5071476;28;20207;-58
2023/09/07 04:40:35;;;;;;;0.10;0.10;;;22.80;50.50;;;;;;5070468;28;20198;-58
2023/09/07 04:43:05;;;;;;;0.10;0.10;;;22.80;50.30;;;;;;5070841;28;20626;-58
2023/09/07 04:45:36;;;;;;;0.00;0.00;;;22.80;50.20;;;;;;5070243;28;20551;-58
2023/09/07 04:48:07;;;;;;;0.00;0.00;;;22.80;50.10;;;;;;5071112;28;20211;-58
2023/09/07 04:50:38;;;;;;;0.00;0.00;;;22.90;50.20;;;;;;5071712;28;20234;-58
2023/09/07 04:53:08;;;;;;;0.10;0.10;;;22.90;50.20;;;;;;5071614;28;20194;-58
2023/09/07 04:55:43;;;;;;;0.10;0.10;;;22.90;50.30;;;;;;5071094;28;20568;-58
2023/09/07 04:58:14;;;;;;;0.00;0.00;;;22.90;50.30;;;;;;5070989;28;20218;-58
2023/09/07 05:00:44;;;;;;;0.00;0.00;;;23.00;50.30;;;;;;5071444;28;20202;-58
2023/09/07 05:03:15;;;;;;;0.00;0.00;;;23.00;50.20;;;;;;5071531;28;20716;-58
2023/09/07 05:05:46;;;;;;;0.00;0.00;;;22.90;50.10;;;;;;5071408;28;20203;-58
2023/09/07 05:08:16;;;;;;;0.00;0.00;;;22.90;50.00;;;;;;5071141;28;20314;-58
2023/09/07 05:10:49;;;;;;;0.08;0.08;;;23.00;49.80;;;;;;5070951;28;20338;-58
2023/09/07 05:13:20;;;;;;;0.00;0.00;;;23.00;49.70;;;;;;5070894;28;20195;-58
2023/09/07 05:15:53;;;;;;;0.00;0.00;;;22.90;49.50;;;;;;5070960;28;20202;-58
2023/09/07 05:18:25;;;;;;;0.00;0.00;;;22.90;49.40;;;;;;5070838;28;20272;-58
2023/09/07 05:20:55;;;;;;;0.00;0.00;;;22.90;49.20;;;;;;5071211;28;20654;-58
2023/09/07 05:23:26;;;;;;;0.00;0.00;;;22.90;49.10;;;;;;5071005;28;20231;-58
2023/09/07 05:25:59;;;;;;;0.00;0.00;;;22.80;48.90;;;;;;5071316;28;20202;-58
2023/09/07 05:28:29;;;;;;;0.00;0.00;;;22.80;48.60;;;;;;5070767;28;20218;-58
2023/09/07 05:31:00;;;;;;;0.10;0.10;;;22.80;48.40;;;;;;5070554;28;20195;-58
2023/09/07 05:33:31;;;;;;;0.00;0.00;;;22.80;48.30;;;;;;5071122;28;20203;-57
2023/09/07 05:36:01;;;;;;;0.00;0.00;;;22.80;48.40;;;;;;5070996;28;20543;-58
2023/09/07 05:38:32;;;;;;;0.00;0.00;;;22.80;48.40;;;;;;5070123;28;20294;-58
2023/09/07 05:41:05;;;;;;;0.00;0.00;;;22.70;48.10;;;;;;5074208;28;20233;-59
2023/09/07 05:43:36;;;;;;;0.00;0.00;;;22.70;48.00;;;;;;5056259;28;20233;-58
2023/09/07 05:46:06;;;;;;;0.00;0.00;;;22.70;48.00;;;;;;5072974;28;20210;-58
2023/09/07 05:48:37;;;;;;;0.00;0.00;;;22.70;48.00;;;;;;5073338;28;20214;-58
2023/09/07 05:51:08;;;;;;;0.00;0.00;;;22.60;48.00;;;;;;5074317;28;20207;-58
2023/09/07 05:53:38;;;;;;;0.00;0.00;;;22.60;48.00;;;;;;5074372;28;20241;-58
2023/09/07 05:56:11;;;;;;;0.00;0.00;;;22.60;48.00;;;;;;5073925;28;20191;-58
2023/09/07 05:58:41;;;;;;;0.00;0.00;;;22.60;48.00;;;;;;5073547;28;20219;-58
2023/09/07 06:01:12;;;;;;;0.10;0.10;;;22.50;47.90;;;;;;5074036;28;20587;-58
2023/09/07 06:03:43;;;;;;;0.00;0.00;;;22.50;47.90;;;;;;5073767;28;20274;-58
2023/09/07 06:06:13;;;;;;;0.00;0.00;;;22.40;47.90;;;;;;5074244;28;20666;-58
2023/09/07 06:08:44;;;;;;;0.00;0.00;;;22.40;48.00;;;;;;5073600;28;20206;-58
2023/09/07 06:11:17;;;;;;;0.10;0.10;;;22.40;48.10;;;;;;5074344;28;20283;-58
2023/09/07 06:13:47;;;;;;;0.10;0.10;;;22.40;48.00;;;;;;5073460;28;20198;-58
2023/09/07 06:16:18;;;;;;;0.10;0.10;;;22.30;48.00;;;;;;5073661;28;20233;-58
2023/09/07 06:18:49;;;;;;;0.00;0.00;;;22.30;48.00;;;;;;5073065;28;20207;-58
2023/09/07 06:21:19;;;;;;;0.03;0.03;;;22.30;48.00;;;;;;5073476;28;20203;-58
2023/09/07 06:23:50;;;;;;;0.10;0.10;;;22.20;48.00;;;;;;5073514;28;20219;-58
2023/09/07 06:26:22;;;;;;;0.00;0.00;;;22.20;48.00;;;;;;5072975;28;20203;-56
2023/09/07 06:28:53;;;;;;;0.00;0.00;;;22.20;48.00;;;;;;5071028;28;20562;-56
2023/09/07 06:31:24;;;;;;;0.00;0.00;;;22.20;48.10;;;;;;5068410;28;20202;-58
2023/09/07 06:33:54;;;;;;;0.00;0.00;;;22.10;48.00;;;;;;5070918;28;20207;-58
2023/09/07 06:36:25;;;;;;;0.00;0.00;;;22.10;48.10;;;;;;5073548;28;20205;-58
2023/09/07 06:38:55;;;;;;;0.00;0.00;;;22.10;48.10;;;;;;5072356;28;20218;-58
2023/09/07 06:41:28;;;;;;;0.00;0.00;;;22.00;48.20;;;;;;5072750;28;20601;-58
2023/09/07 06:43:58;;;;;;;0.10;0.10;;;22.00;48.20;;;;;;5067336;28;20230;-58
2023/09/07 06:46:29;;;;;;;0.10;0.10;;;22.00;48.30;;;;;;5070744;28;20199;-58
2023/09/07 06:49:00;;;;;;;0.00;0.00;;;22.00;48.30;;;;;;5063471;28;20281;-58
2023/09/07 06:51:30;;;;;;;0.10;0.10;;;21.90;49.00;;;;;;5073250;28;20438;-59
2023/09/07 06:54:01;;;;;;;0.10;0.10;;;21.90;48.40;;;;;;5073373;28;20191;-58
2023/09/07 06:56:34;;;;;;;0.00;0.00;;;21.90;48.40;;;;;;5072468;28;20199;-58
2023/09/07 06:59:05;;;;;;;0.05;0.05;;;21.80;48.40;;;;;;5072961;28;20191;-58
2023/09/07 07:01:35;;;;;;;0.10;0.10;;;21.90;49.10;;;;;;5072725;28;20195;-58
2023/09/07 07:04:06;;;;;;;0.00;0.00;;;21.80;48.50;;;;;;5072190;28;20626;-58
2023/09/07 07:06:37;;;;;;;0.10;0.10;;;21.80;48.50;;;;;;5071949;28;20199;-59
2023/09/07 07:09:09;;;;;;;0.00;0.00;;;21.80;48.50;;;;;;5072896;28;20191;-58
2023/09/07 07:11:42;;;;;;;0.08;0.08;;;21.70;48.50;;;;;;5069605;28;20213;-58
2023/09/07 07:14:13;;;;;;;0.10;0.10;;;21.70;48.50;;;;;;5071511;28;20244;-58
2023/09/07 07:16:44;;;;;;;0.00;0.00;;;21.70;48.50;;;;;;5072704;28;20198;-58
2023/09/07 07:19:14;;;;;;;0.00;0.00;;;21.70;48.60;;;;;;5072836;28;20199;-58
2023/09/07 07:21:45;;;;;;;0.00;0.00;;;21.70;48.60;;;;;;5072769;28;20202;-58
2023/09/07 07:24:15;;;;;;;0.10;0.10;;;21.60;48.60;;;;;;5071519;28;20225;-58
2023/09/07 07:26:48;;;;;;;0.00;0.00;;;21.60;49.20;;;;;;5071818;28;20562;-59
2023/09/07 07:29:19;;;;;;;0.10;0.10;;;21.60;48.70;;;;;;5067157;28;20210;-58
2023/09/07 07:31:50;;;;;;;0.08;0.08;;;21.60;48.70;;;;;;5052406;28;20235;-58
2023/09/07 07:34:20;;;;;;;0.00;0.00;;;21.50;48.70;;;;;;5067563;28;20264;-59
2023/09/07 07:36:51;;;;;;;0.05;0.05;;;21.50;48.70;;;;;;5072556;28;20221;-58
2023/09/07 07:39:22;;;;;;;0.00;0.00;;;21.50;48.80;;;;;;5071949;28;20281;-58
2023/09/07 07:41:54;;;;;;;0.10;0.10;;;21.50;48.80;;;;;;5071728;28;20234;-57
2023/09/07 07:44:25;;;;;;;0.08;0.08;;;21.50;48.80;;;;;;5072266;28;20223;-58
2023/09/07 07:46:56;;;;;;;0.10;0.10;;;21.40;48.80;;;;;;5072572;28;20198;-58
2023/09/07 07:49:27;;;;;;;0.10;0.10;;;21.40;48.80;;;;;;5053008;28;20191;-58
2023/09/07 07:51:58;;;;;;;0.10;0.10;;;21.40;48.80;;;;;;5052186;28;20708;-59
2023/09/07 07:54:29;;;;;;;0.08;0.08;;;21.40;48.90;;;;;;5056322;28;20183;-58
2023/09/07 07:57:01;;;;;;;0.00;0.00;;;21.40;48.90;;;;;;5072060;28;20445;-58
2023/09/07 07:59:32;;;;;;;0.10;0.10;;;21.30;48.90;;;;;;5071357;28;20208;-58
2023/09/07 08:02:03;;;;;;;0.00;0.00;;;21.30;48.90;;;;;;5071607;28;20206;-59
2023/09/07 08:04:35;;;;;;;0.00;0.00;;;21.30;48.90;;;;;;5071246;28;20706;-58
2023/09/07 08:07:08;;;;;;;0.03;0.03;;;21.30;49.00;;;;;;5071684;28;20203;-58
2023/09/07 08:09:39;;;;;;;0.08;0.08;;;21.30;49.00;;;;;;5070873;28;20245;-59
2023/09/07 08:12:11;;;;;;;0.10;0.10;;;21.20;49.00;;;;;;5071216;28;20286;-59
2023/09/07 08:14:42;;;;;;;0.00;0.00;;;21.20;49.10;;;;;;5071261;28;20281;-59
2023/09/07 08:17:13;;;;;;;0.00;0.00;;;21.20;49.20;;;;;;5070954;28;20644;-58
2023/09/07 08:19:43;;;;;;;0.00;0.00;;;21.20;49.10;;;;;;5071492;28;20203;-58
2023/09/07 08:22:16;;;;;;;0.10;0.10;;;21.20;49.20;;;;;;5070461;28;20187;-59
2023/09/07 08:24:48;;;;;;;0.00;0.00;;;21.10;49.10;;;;;;5071017;28;20716;-58
2023/09/07 08:27:21;;;;;;;0.05;0.05;;;21.10;49.10;;;;;;5071576;28;20218;-58
2023/09/07 08:29:52;;;;;;;0.00;0.00;;;21.10;49.10;;;;;;5071017;28;20241;-58
2023/09/07 08:32:23;;;;;;;0.00;0.00;;;21.10;49.10;;;;;;5069743;28;20233;-59
2023/09/07 08:34:56;;;;;;;0.00;0.00;;;21.00;49.10;;;;;;5070221;28;20206;-58
2023/09/07 08:37:27;;;;;;;0.00;0.00;;;21.00;49.10;;;;;;4993789;22;2569029;-46
2023/09/07 08:39:58;;;;;;;0.10;0.10;;;21.00;49.20;;;;;;5070950;28;20206;-46
2023/09/07 08:42:31;;;;;;;0.05;0.05;;;21.00;49.20;;;;;;5072635;28;20203;-47
2023/09/07 08:45:06;;;;;;;0.00;0.00;;;20.90;49.20;;;;;;5071346;28;20226;-46
2023/09/07 08:47:39;;;;;;;0.10;0.10;;;20.90;49.20;;;;;;5070928;28;22478;-46
2023/09/07 08:50:11;;;;;;;0.00;0.00;;;20.90;49.20;;;;;;5071518;28;20190;-45
2023/09/07 08:52:42;;;;;;;0.00;0.00;;;20.90;49.30;;;;;;5071541;28;20194;-46
2023/09/07 08:55:13;;;;;;;0.08;0.08;;;20.80;49.30;;;;;;5070268;28;20203;-46
2023/09/07 08:57:46;;;;;;;0.10;0.10;;;20.80;49.30;;;;;;5070813;28;20286;-46
2023/09/07 09:00:19;;;;;;;0.00;0.00;;;20.80;49.30;;;;;;5071380;28;20203;-46
2023/09/07 09:02:51;;;;;;;0.00;0.00;;;20.80;49.40;;;;;;5071432;28;20682;-47
2023/09/07 09:05:24;;;;;;;0.00;0.00;;;20.80;49.40;;;;;;5070316;28;20271;-46
2023/09/07 09:08:06;;;;;;;0.10;0.10;;;20.80;49.40;;;;;;5070701;28;20230;-46
2023/09/07 09:10:36;;;;;;;0.00;0.00;;;20.70;49.40;;;;;;5070632;28;20237;-46
2023/09/07 09:13:11;;;;;;;0.10;0.10;;;20.70;49.40;;;;;;5070116;28;20199;-46
2023/09/07 09:15:42;;;;;;;0.00;0.00;;;20.70;49.40;;;;;;5071590;28;20198;-46
2023/09/07 09:18:14;;;;;;;0.00;0.00;;;20.60;49.40;;;;;;5070933;28;20215;-45
2023/09/07 09:20:45;;;;;;;0.00;0.00;;;20.60;49.40;;;;;;5071129;28;20198;-46
2023/09/07 09:23:16;;;;;;;0.10;0.10;;;20.60;49.40;;;;;;5070994;28;20198;-45
2023/09/07 09:25:47;;;;;;;0.00;0.00;;;20.60;49.60;;;;;;5070620;28;20226;-47
2023/09/07 09:28:19;;;;;;;0.00;0.00;;;20.60;49.80;;;;;;5071606;28;20682;-46
2023/09/07 09:30:51;;;;;;;0.10;0.10;;;20.50;49.50;;;;;;5071013;28;20202;-45
2023/09/07 09:33:23;;;;;;;0.10;0.10;;;20.50;49.60;;;;;;5071080;28;20241;-47
2023/09/07 09:35:55;;;;;;;0.10;0.10;;;20.50;49.60;;;;;;5070521;28;20278;-46
2023/09/07 09:38:27;;;;;;;0.10;0.10;;;20.50;49.60;;;;;;5070562;28;20693;-45
2023/09/07 09:40:58;;;;;;;0.05;0.05;;;20.50;49.70;;;;;;5070694;28;20230;-45
2023/09/07 09:43:30;;;;;;;0.10;0.10;;;20.40;49.70;;;;;;5069871;28;20195;-44
2023/09/07 09:46:03;;;;;;;0.10;0.10;;;20.40;49.70;;;;;;5070545;28;20655;-45
2023/09/07 09:48:35;;;;;;;0.10;0.10;;;20.40;49.70;;;;;;5070331;28;20222;-44
2023/09/07 09:51:07;;;;;;;0.05;0.05;;;20.40;49.80;;;;;;5070336;28;20191;-45
2023/09/07 09:53:39;;;;;;;0.10;0.10;;;20.40;49.80;;;;;;5070457;28;20199;-47
2023/09/07 09:56:09;;;;;;;0.00;0.00;;;20.30;49.70;;;;;;5067519;28;20195;-45
2023/09/07 09:58:42;;;;;;;0.00;0.00;;;20.30;49.70;;;;;;5070528;28;20223;-46
2023/09/07 10:01:15;;;;;;;0.00;0.00;;;20.30;49.80;;;;;;5068958;28;20183;-45
2023/09/07 10:03:48;;;;;;;0.10;0.10;;;20.30;49.90;;;;;;5069458;28;20209;-45
2023/09/07 10:06:25;;;;;;;0.00;0.00;;;20.30;49.90;;;;;;5069657;28;20225;-45
2023/09/07 10:09:07;;;;;;;0.10;0.10;;;20.20;49.90;;;;;;5069461;28;20313;-46
2023/09/07 10:11:39;;;;;;;0.00;0.00;;;20.20;49.90;;;;;;5069563;28;20199;-46
2023/09/07 10:14:13;;;;;;;0.08;0.08;;;20.20;49.90;;;;;;5069748;28;20249;-45
2023/09/07 10:16:47;;;;;;;0.03;0.03;;;20.20;50.00;;;;;;5070105;28;20244;-46
2023/09/07 10:19:19;;;;;;;0.00;0.00;;;20.10;49.90;;;;;;5070686;28;20198;-45
2023/09/07 10:21:50;;;;;;;0.00;0.00;;;20.10;49.90;;;;;;5051210;28;20206;-45
2023/09/07 10:24:30;;;;;;;0.10;0.10;;;20.10;49.90;;;;;;5071815;28;20215;-45
2023/09/07 10:27:02;;;;;;;0.00;0.00;;;20.10;50.00;;;;;;5054262;28;20261;-45
2023/09/07 10:29:44;;;;;;;0.10;0.10;;;20.10;50.00;;;;;;5054885;28;20651;-45
2023/09/07 10:32:16;;;;;;;0.00;0.00;;;20.00;50.00;;;;;;5073745;28;20191;-46
2023/09/07 10:34:47;;;;;;;0.10;0.10;;;20.00;50.00;;;;;;5072957;28;20681;-45
2023/09/07 10:37:18;;;;;;;0.10;0.10;;;20.00;50.00;;;;;;5074171;28;20261;-46
2023/09/07 10:39:49;;;;;;;0.10;0.10;;;20.00;50.00;;;;;;5072653;28;20199;-45
2023/09/07 10:42:25;;;;;;;0.00;0.00;;;19.90;50.00;;;;;;5073873;28;20453;-45
2023/09/07 10:44:58;;;;;;;0.00;0.00;;;19.90;50.00;;;;;;5072580;28;20295;-44
2023/09/07 10:47:29;;;;;;;0.10;0.10;;;19.90;50.00;;;;;;5073363;28;20572;-46
2023/09/07 10:50:01;;;;;;;0.05;0.05;;;19.90;50.10;;;;;;5073177;28;20183;-46
2023/09/07 10:52:32;;;;;;;0.00;0.00;;;19.90;50.10;;;;;;5073732;28;20557;-45
2023/09/07 10:55:03;;;;;;;0.10;0.10;;;19.80;50.10;;;;;;5073684;28;20598;-45
2023/09/07 10:57:34;;;;;;;0.00;0.00;;;19.80;50.10;;;;;;5072326;28;20330;-45
2023/09/07 11:00:10;;;;;;;0.10;0.10;;;19.80;50.20;;;;;;5073403;28;20187;-44
2023/09/07 11:02:41;;;;;;;0.10;0.10;;;19.80;50.20;;;;;;5073550;28;20281;-46
2023/09/07 11:05:12;;;;;;;0.00;0.00;;;19.80;50.10;;;;;;5072814;28;20230;-46
2023/09/07 11:07:43;;;;;;;0.00;0.00;;;19.70;50.10;;;;;;5072693;28;20241;-45
2023/09/07 11:10:14;;;;;;;0.10;0.10;;;19.70;50.10;;;;;;5072661;28;20270;-49
2023/09/07 11:12:44;;;;;;;0.00;0.00;;;19.70;50.10;;;;;;5072481;28;20199;-45
2023/09/07 11:15:17;;;;;;;0.00;0.00;;;19.70;50.20;;;;;;5071558;28;20195;-45
2023/09/07 11:17:48;;;;;;;0.03;0.03;;;19.70;50.20;;;;;;5072500;28;20219;-45
2023/09/07 11:20:23;;;;;;;0.05;0.05;;;19.60;50.10;;;;;;5072566;28;20571;-45
2023/09/07 11:22:54;;;;;;;0.10;0.10;;;19.60;50.20;;;;;;5072991;28;20221;-48
2023/09/07 11:25:25;;;;;;;0.00;0.00;;;19.60;50.20;;;;;;5071838;28;20226;-47
2023/09/07 11:27:57;;;;;;;0.03;0.03;;;19.60;50.20;;;;;;5072173;28;20575;-47
2023/09/07 11:30:30;;;;;;;0.08;0.08;;;19.60;50.30;;;;;;5072367;28;20193;-47
2023/09/07 11:33:10;;;;;;;0.00;0.00;;;19.50;50.30;;;;;;5072677;28;20202;-47
2023/09/07 11:35:41;;;;;;;0.10;0.10;;;19.50;50.30;;;;;;5070568;28;20617;-46
2023/09/07 11:38:14;;;;;;;0.03;0.03;;;19.50;50.30;;;;;;5072731;28;20222;-47
2023/09/07 11:40:46;;;;;;;0.00;0.00;;;19.50;50.30;;;;;;5072345;28;20560;-47
2023/09/07 11:43:18;;;;;;;0.00;0.00;;;19.50;50.30;;;;;;5071427;28;20242;-47
2023/09/07 11:45:51;;;;;;;0.00;0.00;;;19.50;50.30;;;;;;5072328;28;20276;-47
2023/09/07 11:48:21;;;;;;;0.05;0.05;;;19.50;50.40;;;;;;5071780;28;20591;-47
2023/09/07 11:50:52;;;;;;;0.00;0.00;;;19.40;50.30;;;;;;5071875;28;20194;-46
2023/09/07 11:53:23;;;;;;;0.10;0.10;;;19.40;50.40;;;;;;5070581;28;20202;-46
2023/09/07 11:55:54;;;;;;;0.10;0.10;;;19.40;50.30;;;;;;5059573;28;20194;-47
2023/09/07 11:58:25;;;;;;;0.10;0.10;;;19.40;50.30;;;;;;5071495;28;20215;-46
2023/09/07 12:00:57;;;;;;;0.00;0.00;;;19.30;50.30;;;;;;5071969;28;20229;-47
2023/09/07 12:03:30;;;;;;;0.03;0.03;;;19.40;50.40;;;;;;5071426;28;20198;-46
2023/09/07 12:06:00;;;;;;;0.00;0.00;;;19.30;50.40;;;;;;5071403;28;20215;-47
2023/09/07 12:08:31;;;;;;;0.00;0.00;;;19.30;50.40;;;;;;5070768;28;20219;-46
2023/09/07 12:11:01;;;;;;;0.00;0.00;;;19.30;50.40;;;;;;5071108;28;20191;-47
2023/09/07 12:13:32;;;;;;;0.10;0.10;;;19.30;50.40;;;;;;5071921;28;20209;-47
2023/09/07 12:16:05;;;;;;;0.00;0.00;;;19.20;50.40;;;;;;5071533;28;20197;-47
2023/09/07 12:18:35;;;;;;;0.00;0.00;;;19.20;50.40;;;;;;5072219;28;20583;-49
2023/09/07 12:21:06;;;;;;;0.00;0.00;;;19.30;50.50;;;;;;5070244;28;20206;-47
2023/09/07 12:23:37;;;;;;;0.00;0.00;;;19.20;50.40;;;;;;5068143;28;20195;-48
2023/09/07 12:26:08;;;;;;;0.00;0.00;;;19.20;50.50;;;;;;5069758;28;20624;-47
2023/09/07 12:28:39;;;;;;;0.10;0.10;;;19.20;50.50;;;;;;5070637;28;20299;-48
2023/09/07 12:31:11;;;;;;;0.00;0.00;;;19.20;50.50;;;;;;5071576;28;20187;-47
2023/09/07 12:33:42;;;;;;;0.10;0.10;;;19.20;50.50;;;;;;5071666;28;20194;-47
2023/09/07 12:36:22;;;;;;;;;;;;;;;;;;;;;
2023/09/07 12:39:01;;;;;;;0.00;0.00;;;19.10;50.50;;;;;;5089078;28;20218;-50
2023/09/07 12:41:32;;;;;;;0.10;0.10;;;19.10;50.50;;;;;;5091382;28;20348;-54
2023/09/07 12:44:03;;;;;;;0.00;0.00;;;19.10;50.50;;;;;;5091248;28;20190;-55
2023/09/07 12:46:37;;;;;;;0.03;0.03;;;19.00;50.50;;;;;;5090480;28;20214;-54
2023/09/07 12:49:07;;;;;;;0.00;0.00;;;19.00;50.50;;;;;;5090977;28;20235;-56
2023/09/07 12:51:38;;;;;;;0.08;0.08;;;19.00;50.60;;;;;;5088595;28;20273;-54
2023/09/07 12:54:09;;;;;;;0.10;0.10;;;19.00;50.60;;;;;;5091294;28;20183;-58
2023/09/07 12:56:39;;;;;;;0.00;0.00;;;19.00;50.60;;;;;;5088933;28;20194;-56
2023/09/07 12:59:10;;;;;;;0.10;0.10;;;19.00;50.60;;;;;;5091298;28;20186;-54
2023/09/07 13:01:42;;;;;;;0.00;0.00;;;18.90;50.60;;;;;;5088819;28;20186;-50
2023/09/07 13:04:13;;;;;;;0.00;0.00;;;18.90;50.60;;;;;;5091186;28;20198;-57
2023/09/07 13:06:44;;;;;;;0.00;0.00;;;18.90;50.60;;;;;;5090246;28;20221;-57
2023/09/07 13:09:14;;;;;;;0.00;0.00;;;18.90;50.60;;;;;;5091008;28;20190;-55